Time;durP1;ratioP1;P1;durP2;ratioP2;P2;SDS_P1;SDS_P2;PMS_P1;PMS_P2;Temp;Humidity;BMP_temperature;BMP_pressure;BME280_temperature;BME280_humidity;BME280_pressure;Samples;Min_cycle;Max_cycle;Signal;HPM_P1;HPM_P2
2022/09/05 00:02:27;;;;;;;3.40;1.60;;;17.60;91.30;;;;;;5023254;28;20288;-46
2022/09/05 00:05:19;;;;;;;1.80;1.70;;;17.50;91.40;;;;;;5040006;28;20579;-45
2022/09/05 00:07:54;;;;;;;1.60;1.37;;;17.50;91.50;;;;;;5035823;28;20427;-46
2022/09/05 00:10:28;;;;;;;1.70;1.60;;;17.40;91.60;;;;;;5042100;28;20209;-50
2022/09/05 00:12:59;;;;;;;2.27;1.37;;;17.40;91.80;;;;;;5025609;28;20246;-46
2022/09/05 00:15:35;;;;;;;3.10;1.67;;;17.30;91.90;;;;;;5037841;28;20218;-48
2022/09/05 00:18:33;;;;;;;2.77;1.70;;;17.30;92.10;;;;;;5026951;28;20687;-47
2022/09/05 00:21:08;;;;;;;2.13;1.47;;;17.20;92.30;;;;;;5041618;28;20222;-46
2022/09/05 00:23:46;;;;;;;2.50;1.67;;;17.20;92.50;;;;;;5029983;28;20219;-46
2022/09/05 00:26:25;;;;;;;3.53;1.60;;;17.20;93.00;;;;;;5038235;28;20202;-50
2022/09/05 00:29:02;;;;;;;2.53;1.60;;;17.10;92.80;;;;;;5033038;28;20200;-51
2022/09/05 00:31:42;;;;;;;2.50;1.20;;;17.10;93.00;;;;;;5027137;28;20199;-45
2022/09/05 00:34:22;;;;;;;3.17;1.63;;;17.00;93.20;;;;;;5038305;28;20215;-46
2022/09/05 00:36:53;;;;;;;3.47;1.63;;;17.00;93.30;;;;;;5039316;28;20196;-48
2022/09/05 00:39:24;;;;;;;1.80;1.53;;;17.00;93.40;;;;;;5039767;28;20803;-48
2022/09/05 00:41:53;;;;;;;2.10;1.47;;;17.00;93.60;;;;;;5037011;28;21576;-48
2022/09/05 00:44:25;;;;;;;2.47;1.67;;;17.00;93.70;;;;;;5031551;28;20227;-48
2022/09/05 00:46:58;;;;;;;2.10;1.70;;;17.00;93.80;;;;;;5039125;28;20211;-45
2022/09/05 00:49:32;;;;;;;1.60;1.50;;;16.90;94.00;;;;;;5026000;28;20688;-46
2022/09/05 00:52:07;;;;;;;2.47;1.50;;;16.80;94.30;;;;;;5040413;28;20210;-45
2022/09/05 00:54:50;;;;;;;1.90;1.40;;;16.80;94.40;;;;;;5026441;28;20194;-46
2022/09/05 00:58:00;;;;;;;1.80;1.40;;;16.80;94.90;;;;;;5045716;28;20648;-44
2022/09/05 01:00:43;;;;;;;1.77;1.60;;;16.70;94.80;;;;;;5033894;28;20215;-46
2022/09/05 01:03:25;;;;;;;1.70;1.57;;;16.70;95.00;;;;;;5029122;28;20713;-48
2022/09/05 01:06:16;;;;;;;1.23;1.13;;;16.60;95.20;;;;;;5041660;28;20847;-44
2022/09/05 01:09:03;;;;;;;2.50;1.63;;;16.60;99.90;;;;;;5036035;28;20920;-46
2022/09/05 01:11:50;;;;;;;1.63;1.53;;;16.60;95.70;;;;;;5038469;28;20563;-47
2022/09/05 01:14:35;;;;;;;2.63;1.30;;;16.50;95.90;;;;;;5041961;28;20225;-49
2022/09/05 01:17:12;;;;;;;1.70;1.60;;;16.50;96.00;;;;;;5034864;28;20200;-48
2022/09/05 01:19:57;;;;;;;2.30;1.73;;;16.50;96.30;;;;;;5026796;28;20278;-46
2022/09/05 01:22:54;;;;;;;2.83;1.60;;;16.40;96.40;;;;;;5040814;28;20651;-49
2022/09/05 01:25:34;;;;;;;1.70;1.57;;;16.40;96.80;;;;;;5040334;28;20271;-49
2022/09/05 01:28:08;;;;;;;2.03;1.50;;;16.30;97.00;;;;;;5044299;28;20229;-46
2022/09/05 01:30:40;;;;;;;2.30;1.57;;;16.30;97.20;;;;;;5036402;28;20266;-45
2022/09/05 01:33:17;;;;;;;1.87;1.73;;;16.30;97.40;;;;;;5032171;28;20223;-48
2022/09/05 01:36:03;;;;;;;3.10;1.83;;;16.20;97.60;;;;;;5032770;28;20206;-45
2022/09/05 01:38:39;;;;;;;4.33;1.70;;;16.20;97.80;;;;;;5039554;28;20286;-46
2022/09/05 01:41:20;;;;;;;2.07;1.40;;;16.10;98.00;;;;;;5044426;28;20210;-47
2022/09/05 01:44:09;;;;;;;3.37;1.87;;;16.20;98.20;;;;;;5037036;28;20214;-46
2022/09/05 01:46:43;;;;;;;3.77;1.73;;;16.10;98.40;;;;;;5039446;28;20207;-48
2022/09/05 01:49:23;;;;;;;1.73;1.60;;;16.10;98.50;;;;;;5017697;28;20246;-47
2022/09/05 01:52:20;;;;;;;1.90;1.60;;;16.10;98.60;;;;;;5041272;28;20203;-47
2022/09/05 01:55:01;;;;;;;2.23;1.80;;;16.10;98.90;;;;;;5039968;28;20199;-47
2022/09/05 01:57:39;;;;;;;2.13;1.73;;;16.10;99.00;;;;;;5037003;28;20199;-44
2022/09/05 02:00:12;;;;;;;4.03;1.73;;;16.00;99.00;;;;;;5040501;28;20199;-47
2022/09/05 02:02:52;;;;;;;3.83;1.80;;;16.00;99.10;;;;;;5038382;28;20218;-44
2022/09/05 02:06:03;;;;;;;1.80;1.70;;;16.00;99.20;;;;;;5019749;28;20211;-49
2022/09/05 02:08:42;;;;;;;2.50;1.80;;;16.00;99.50;;;;;;4979041;28;20217;-47
2022/09/05 02:11:10;;;;;;;2.53;1.80;;;15.90;99.80;;;;;;4980620;28;20271;-43
2022/09/05 02:13:53;;;;;;;2.77;1.87;;;15.90;99.80;;;;;;5003258;28;20231;-49
2022/09/05 02:16:28;;;;;;;1.60;1.50;;;15.90;99.90;;;;;;5041453;28;20204;-50
2022/09/05 02:19:03;;;;;;;2.23;1.60;;;16.00;99.90;;;;;;5043150;28;20202;-48
2022/09/05 02:21:39;;;;;;;3.10;2.10;;;15.90;99.90;;;;;;5026302;28;20211;-46
2022/09/05 02:24:13;;;;;;;3.03;2.43;;;15.90;99.90;;;;;;5042895;28;20238;-44
2022/09/05 02:26:50;;;;;;;2.97;1.97;;;16.00;99.90;;;;;;5037863;28;20191;-44
2022/09/05 02:29:22;;;;;;;2.87;1.80;;;15.90;99.90;;;;;;5044354;28;20845;-48
2022/09/05 02:31:54;;;;;;;1.67;1.57;;;16.00;99.90;;;;;;5039729;28;20203;-47
2022/09/05 02:34:30;;;;;;;2.10;2.00;;;16.10;99.90;;;;;;5039106;28;20700;-48
2022/09/05 02:37:07;;;;;;;2.13;1.93;;;16.10;99.90;;;;;;5029254;28;20579;-47
2022/09/05 02:39:38;;;;;;;3.03;2.13;;;16.20;99.90;;;;;;5037252;28;20197;-47
2022/09/05 02:42:13;;;;;;;2.00;1.90;;;16.20;99.80;;;;;;5042950;28;20196;-48
2022/09/05 02:44:52;;;;;;;3.23;2.20;;;16.20;99.70;;;;;;5035415;28;20978;-48
2022/09/05 02:47:26;;;;;;;3.13;1.90;;;16.20;99.90;;;;;;5038937;28;20192;-46
2022/09/05 02:50:02;;;;;;;6.37;2.57;;;16.20;99.50;;;;;;5036221;28;20188;-47
2022/09/05 02:52:32;;;;;;;2.23;2.07;;;16.30;99.40;;;;;;5025640;28;20225;-49
2022/09/05 02:55:00;;;;;;;3.00;2.23;;;16.30;99.30;;;;;;5040565;28;20203;-44
2022/09/05 02:57:37;;;;;;;4.10;1.80;;;16.30;99.20;;;;;;5040616;28;20233;-47
2022/09/05 03:00:09;;;;;;;2.43;2.23;;;16.30;99.20;;;;;;5042414;28;20206;-47
2022/09/05 03:02:59;;;;;;;2.90;2.13;;;16.30;99.10;;;;;;5037272;28;20933;-47
2022/09/05 03:05:30;;;;;;;3.23;2.30;;;16.30;99.00;;;;;;5027113;28;20218;-45
2022/09/05 03:08:19;;;;;;;2.67;2.33;;;16.30;99.00;;;;;;5041820;28;20265;-45
2022/09/05 03:11:12;;;;;;;3.63;2.10;;;16.40;99.00;;;;;;5039202;28;20239;-46
2022/09/05 03:14:25;;;;;;;2.50;2.13;;;16.30;99.00;;;;;;5030435;28;20281;-48
2022/09/05 03:17:22;;;;;;;2.93;2.30;;;16.30;99.00;;;;;;5035150;28;20191;-45
2022/09/05 03:20:18;;;;;;;2.43;2.23;;;16.30;99.00;;;;;;5038727;28;20191;-50
2022/09/05 03:23:18;;;;;;;2.50;2.30;;;16.30;98.90;;;;;;5019759;28;20342;-49
2022/09/05 03:26:20;;;;;;;2.43;2.20;;;16.30;98.80;;;;;;5037314;28;20197;-48
2022/09/05 03:29:34;;;;;;;2.90;2.30;;;16.40;98.80;;;;;;5022176;28;20234;-45
2022/09/05 03:32:24;;;;;;;2.87;2.53;;;16.30;98.70;;;;;;5037961;28;20206;-47
2022/09/05 03:35:11;;;;;;;2.53;2.37;;;16.30;98.70;;;;;;5039623;28;20192;-47
2022/09/05 03:38:15;;;;;;;5.20;2.27;;;16.30;98.80;;;;;;5022881;28;20191;-45
2022/09/05 03:41:08;;;;;;;3.27;2.27;;;16.30;98.80;;;;;;5038939;28;20187;-47
2022/09/05 03:43:55;;;;;;;2.87;2.43;;;16.20;98.90;;;;;;5036416;28;20214;-48
2022/09/05 03:46:47;;;;;;;3.07;2.20;;;16.20;99.00;;;;;;5035832;28;20199;-47
2022/09/05 03:49:29;;;;;;;2.80;2.60;;;16.20;99.10;;;;;;5040240;28;20215;-49
2022/09/05 03:52:06;;;;;;;2.30;2.10;;;16.20;99.10;;;;;;5023421;28;20207;-48
2022/09/05 03:55:07;;;;;;;3.10;2.70;;;16.20;99.10;;;;;;5036705;28;20199;-50
2022/09/05 03:57:51;;;;;;;2.40;2.20;;;16.20;99.10;;;;;;5037408;28;20194;-49
2022/09/05 04:00:20;;;;;;;4.80;2.30;;;16.20;99.20;;;;;;5036882;28;20250;-47
2022/09/05 04:02:59;;;;;;;2.67;2.47;;;16.20;99.30;;;;;;5045389;28;20222;-46
2022/09/05 04:05:31;;;;;;;3.43;2.20;;;16.20;99.30;;;;;;5040462;28;20209;-50
2022/09/05 04:08:08;;;;;;;4.07;2.20;;;16.20;99.40;;;;;;5028721;28;20215;-45
2022/09/05 04:10:44;;;;;;;2.40;2.30;;;16.20;99.40;;;;;;5030336;28;20187;-48
2022/09/05 04:13:20;;;;;;;2.77;2.20;;;16.20;99.40;;;;;;5035990;28;20304;-44
2022/09/05 04:15:50;;;;;;;4.90;2.63;;;16.20;99.40;;;;;;5036521;28;20203;-46
2022/09/05 04:18:27;;;;;;;2.97;2.53;;;16.20;99.40;;;;;;5041557;28;20199;-46
2022/09/05 04:21:00;;;;;;;3.93;2.60;;;16.20;99.50;;;;;;5042142;28;20563;-48
2022/09/05 04:23:36;;;;;;;3.70;2.57;;;16.20;99.40;;;;;;5022079;28;20242;-46
2022/09/05 04:26:20;;;;;;;3.50;2.37;;;16.20;99.40;;;;;;5041593;28;20704;-46
2022/09/05 04:29:01;;;;;;;2.87;2.67;;;16.20;99.40;;;;;;5042778;28;20214;-45
2022/09/05 04:31:37;;;;;;;3.63;2.70;;;16.20;99.30;;;;;;5035624;28;20475;-47
2022/09/05 04:34:16;;;;;;;3.03;2.73;;;16.20;99.40;;;;;;5042020;28;20223;-50
2022/09/05 04:36:44;;;;;;;5.17;2.90;;;16.20;99.50;;;;;;5036425;28;20195;-49
2022/09/05 04:39:26;;;;;;;2.50;2.30;;;16.10;99.80;;;;;;5031425;28;20215;-50
2022/09/05 04:41:59;;;;;;;2.37;2.17;;;16.10;99.60;;;;;;5048706;28;20203;-48
2022/09/05 04:44:30;;;;;;;3.10;2.80;;;16.10;99.50;;;;;;5038071;28;20699;-50
2022/09/05 04:47:02;;;;;;;3.00;2.63;;;16.10;99.70;;;;;;5042816;28;20554;-50
2022/09/05 04:49:33;;;;;;;4.43;2.70;;;16.00;99.70;;;;;;5037163;28;20219;-50
2022/09/05 04:52:29;;;;;;;3.67;2.40;;;16.10;99.80;;;;;;5044871;28;20536;-45
2022/09/05 04:55:02;;;;;;;4.73;2.87;;;16.10;99.90;;;;;;5023578;28;20206;-46
2022/09/05 04:57:34;;;;;;;2.73;2.50;;;16.00;99.90;;;;;;5042866;28;20927;-48
2022/09/05 05:00:04;;;;;;;2.90;2.63;;;16.00;99.90;;;;;;5038779;28;20205;-48
2022/09/05 05:02:37;;;;;;;2.70;2.33;;;16.00;99.90;;;;;;5055830;28;20215;-47
2022/09/05 05:05:09;;;;;;;5.07;2.73;;;16.00;99.90;;;;;;5041717;28;20202;-52
2022/09/05 05:07:47;;;;;;;3.07;2.73;;;16.00;99.90;;;;;;5050358;28;20283;-46
2022/09/05 05:10:23;;;;;;;4.27;2.87;;;16.00;99.90;;;;;;5028252;28;20210;-48
2022/09/05 05:13:02;;;;;;;2.87;2.60;;;16.00;99.90;;;;;;5052599;28;20311;-47
2022/09/05 05:15:32;;;;;;;4.10;2.83;;;16.00;99.90;;;;;;5039791;28;20269;-45
2022/09/05 05:18:05;;;;;;;5.33;3.20;;;16.10;99.90;;;;;;5040276;28;20214;-50
2022/09/05 05:20:37;;;;;;;5.23;2.93;;;16.00;99.90;;;;;;5041365;28;20222;-49
2022/09/05 05:23:07;;;;;;;4.33;2.73;;;16.10;99.90;;;;;;5048469;28;20218;-47
2022/09/05 05:25:45;;;;;;;4.20;2.83;;;16.10;99.90;;;;;;5041335;28;20646;-48
2022/09/05 05:28:16;;;;;;;6.00;2.97;;;16.10;99.90;;;;;;5026525;28;20207;-51
2022/09/05 05:30:44;;;;;;;3.50;2.63;;;16.20;99.90;;;;;;5044675;28;20201;-46
2022/09/05 05:33:22;;;;;;;3.13;2.47;;;16.20;99.90;;;;;;5044713;28;20240;-47
2022/09/05 05:35:50;;;;;;;2.50;2.30;;;16.20;99.90;;;;;;5046366;28;20202;-45
2022/09/05 05:38:27;;;;;;;5.37;2.40;;;16.20;99.90;;;;;;5040892;28;20407;-48
2022/09/05 05:41:02;;;;;;;6.00;2.70;;;16.30;99.90;;;;;;5042179;28;20191;-50
2022/09/05 05:43:36;;;;;;;6.33;2.80;;;16.30;99.90;;;;;;5029979;28;20223;-45
2022/09/05 05:46:03;;;;;;;3.17;2.87;;;16.30;99.90;;;;;;5039671;28;20199;-49
2022/09/05 05:48:35;;;;;;;3.23;2.53;;;16.40;99.90;;;;;;5045966;28;21164;-47
2022/09/05 05:51:32;;;;;;;2.83;2.63;;;16.50;99.90;;;;;;5036126;28;20196;-47
2022/09/05 05:54:04;;;;;;;4.80;3.00;;;16.50;99.90;;;;;;5037125;28;20235;-50
2022/09/05 05:57:15;;;;;;;5.77;3.30;;;16.60;99.90;;;;;;5036013;28;20207;-48
2022/09/05 06:00:03;;;;;;;5.57;3.00;;;16.60;99.90;;;;;;5027774;28;20215;-48
2022/09/05 06:03:19;;;;;;;6.47;2.80;;;16.70;99.80;;;;;;5042923;28;20219;-48
2022/09/05 06:06:08;;;;;;;7.70;3.00;;;16.80;99.90;;;;;;5038196;28;20210;-49
2022/09/05 06:09:00;;;;;;;6.53;3.50;;;16.90;99.80;;;;;;5038937;28;20221;-50
2022/09/05 06:11:52;;;;;;;4.47;2.67;;;16.90;99.50;;;;;;5032266;28;20223;-50
2022/09/05 06:15:05;;;;;;;3.13;2.83;;;17.00;99.40;;;;;;5028299;28;20242;-47
2022/09/05 06:18:02;;;;;;;3.67;3.20;;;17.00;99.40;;;;;;5043399;28;20234;-46
2022/09/05 06:21:04;;;;;;;6.40;3.13;;;17.10;99.20;;;;;;5028256;28;20216;-47
2022/09/05 06:23:52;;;;;;;3.07;2.60;;;17.10;99.10;;;;;;5044953;28;20233;-47
2022/09/05 06:26:55;;;;;;;2.77;2.50;;;17.20;99.10;;;;;;5040634;28;20691;-44
2022/09/05 06:29:34;;;;;;;4.23;2.90;;;17.20;99.00;;;;;;5041899;28;20223;-45
2022/09/05 06:32:16;;;;;;;4.37;3.23;;;17.30;98.90;;;;;;5040219;28;20207;-44
2022/09/05 06:35:17;;;;;;;5.20;3.97;;;17.30;98.90;;;;;;5036925;28;20270;-44
2022/09/05 06:37:53;;;;;;;3.77;3.33;;;17.40;99.00;;;;;;5021585;28;20218;-46
2022/09/05 06:40:25;;;;;;;4.60;3.50;;;17.40;98.80;;;;;;5045223;28;20286;-44
2022/09/05 06:43:24;;;;;;;4.30;3.03;;;17.40;98.80;;;;;;5043348;28;20207;-44
2022/09/05 06:46:07;;;;;;;3.00;2.77;;;17.50;98.80;;;;;;5020129;28;20227;-44
2022/09/05 06:48:46;;;;;;;3.40;2.73;;;17.50;98.70;;;;;;5041210;28;20577;-46
2022/09/05 06:51:49;;;;;;;5.37;3.17;;;17.60;98.60;;;;;;5051806;28;20519;-44
2022/09/05 06:54:52;;;;;;;5.20;3.40;;;17.70;98.60;;;;;;5029535;28;20318;-42
2022/09/05 06:57:41;;;;;;;11.27;5.07;;;17.80;98.40;;;;;;5027202;28;20567;-42
2022/09/05 07:00:17;;;;;;;9.33;3.47;;;17.90;98.20;;;;;;5041646;28;20936;-43
2022/09/05 07:02:55;;;;;;;3.10;2.90;;;18.00;98.10;;;;;;5031638;28;20242;-47
2022/09/05 07:05:33;;;;;;;3.37;3.17;;;18.10;98.00;;;;;;5044332;28;20195;-45
2022/09/05 07:08:07;;;;;;;2.90;2.67;;;18.20;97.90;;;;;;5045630;28;20203;-44
2022/09/05 07:10:37;;;;;;;2.93;2.73;;;18.20;97.80;;;;;;5040144;28;20207;-47
2022/09/05 07:13:12;;;;;;;3.57;2.67;;;18.30;97.60;;;;;;5042843;28;20226;-44
2022/09/05 07:15:52;;;;;;;2.97;2.67;;;18.30;97.60;;;;;;5030844;28;20194;-45
2022/09/05 07:18:26;;;;;;;3.00;2.73;;;18.40;97.60;;;;;;5024866;28;20656;-44
2022/09/05 07:20:57;;;;;;;3.63;3.03;;;18.40;97.60;;;;;;5043896;28;20203;-44
2022/09/05 07:23:43;;;;;;;4.80;3.73;;;18.40;97.50;;;;;;5044815;28;20219;-46
2022/09/05 07:26:11;;;;;;;3.53;2.80;;;18.50;97.40;;;;;;5039675;28;20206;-45
2022/09/05 07:28:42;;;;;;;3.27;2.90;;;18.50;97.40;;;;;;5048023;28;20250;-47
2022/09/05 07:31:15;;;;;;;4.80;3.03;;;18.50;97.40;;;;;;5052584;28;20291;-44
2022/09/05 07:33:44;;;;;;;2.83;2.60;;;18.50;97.50;;;;;;5020263;28;21060;-45
2022/09/05 07:36:18;;;;;;;3.13;2.80;;;18.50;97.40;;;;;;5041768;28;20229;-45
2022/09/05 07:38:49;;;;;;;5.80;2.80;;;18.60;97.30;;;;;;5038627;28;20207;-44
2022/09/05 07:41:22;;;;;;;4.70;2.70;;;18.70;97.30;;;;;;5042530;28;20307;-47
2022/09/05 07:43:54;;;;;;;3.10;2.90;;;18.70;97.20;;;;;;5040989;28;20324;-43
2022/09/05 07:46:25;;;;;;;3.10;2.73;;;18.90;97.00;;;;;;5039749;28;20199;-44
2022/09/05 07:48:56;;;;;;;3.07;2.87;;;19.00;96.80;;;;;;5030678;28;20222;-43
2022/09/05 07:51:28;;;;;;;3.10;2.83;;;19.10;96.70;;;;;;5041212;28;20543;-45
2022/09/05 07:54:01;;;;;;;3.23;2.93;;;19.20;96.50;;;;;;5050151;28;20227;-44
2022/09/05 07:56:45;;;;;;;4.03;2.93;;;19.30;96.70;;;;;;5037691;28;20211;-43
2022/09/05 07:59:13;;;;;;;3.87;2.80;;;19.50;96.30;;;;;;5042696;28;20230;-46
2022/09/05 08:01:43;;;;;;;3.33;2.57;;;19.60;96.00;;;;;;5040399;28;20502;-43
2022/09/05 08:04:12;;;;;;;2.90;2.70;;;19.60;95.70;;;;;;5032138;28;20223;-43
2022/09/05 08:06:40;;;;;;;3.40;2.60;;;19.60;95.70;;;;;;5043531;28;20195;-49
2022/09/05 08:09:14;;;;;;;5.30;2.57;;;19.70;95.70;;;;;;5050553;28;20207;-46
2022/09/05 08:11:41;;;;;;;5.13;2.77;;;19.80;95.50;;;;;;5042097;28;20203;-43
2022/09/05 08:14:16;;;;;;;3.17;2.87;;;19.90;95.40;;;;;;5043226;28;20313;-46
2022/09/05 08:16:43;;;;;;;4.63;3.03;;;20.00;95.20;;;;;;5045212;28;20235;-46
2022/09/05 08:19:39;;;;;;;4.03;2.70;;;20.10;95.10;;;;;;5031139;28;20218;-44
2022/09/05 08:22:17;;;;;;;3.00;2.70;;;20.20;95.00;;;;;;5041705;28;20203;-46
2022/09/05 08:24:52;;;;;;;4.03;2.87;;;20.30;94.70;;;;;;5042954;28;20213;-49
2022/09/05 08:27:23;;;;;;;2.87;2.50;;;20.40;94.60;;;;;;5043491;28;20210;-49
2022/09/05 08:29:53;;;;;;;2.70;2.50;;;20.40;94.50;;;;;;5042382;28;20226;-43
2022/09/05 08:32:25;;;;;;;7.43;3.30;;;20.50;94.40;;;;;;5045894;28;20199;-46
2022/09/05 08:34:56;;;;;;;4.63;3.50;;;20.50;94.30;;;;;;5027919;28;20216;-46
2022/09/05 08:37:27;;;;;;;3.90;2.80;;;20.60;94.10;;;;;;5043720;28;20290;-45
2022/09/05 08:39:57;;;;;;;3.07;2.73;;;20.60;94.20;;;;;;5037250;28;20210;-46
2022/09/05 08:42:33;;;;;;;2.70;2.50;;;20.60;94.20;;;;;;5044222;28;20191;-45
2022/09/05 08:45:13;;;;;;;7.13;2.90;;;20.70;94.10;;;;;;5030585;28;20202;-48
2022/09/05 08:47:50;;;;;;;3.70;2.20;;;20.70;94.10;;;;;;5039047;28;20206;-45
2022/09/05 08:50:27;;;;;;;4.63;2.73;;;20.80;94.20;;;;;;5029155;28;20215;-46
2022/09/05 08:53:13;;;;;;;3.07;2.77;;;20.90;94.10;;;;;;5033702;28;20342;-45
2022/09/05 08:55:46;;;;;;;2.87;2.50;;;21.00;94.00;;;;;;5039030;28;20199;-47
2022/09/05 08:58:41;;;;;;;4.83;2.93;;;21.10;94.10;;;;;;5041176;28;20996;-43
2022/09/05 09:01:17;;;;;;;3.33;2.70;;;21.30;93.40;;;;;;5035039;28;20217;-43
2022/09/05 09:04:02;;;;;;;3.50;2.37;;;21.40;93.40;;;;;;5036318;28;20226;-45
2022/09/05 09:06:51;;;;;;;5.53;3.40;;;21.50;93.10;;;;;;5030528;28;20204;-46
2022/09/05 09:09:33;;;;;;;2.70;2.50;;;21.60;93.00;;;;;;5042463;28;20208;-46
2022/09/05 09:12:13;;;;;;;2.70;2.50;;;21.60;92.90;;;;;;5037988;28;20282;-45
2022/09/05 09:14:52;;;;;;;2.60;2.50;;;21.70;92.90;;;;;;5037716;28;20208;-45
2022/09/05 09:17:30;;;;;;;2.90;2.60;;;21.90;92.70;;;;;;5040001;28;20202;-44
2022/09/05 09:20:21;;;;;;;4.90;2.40;;;21.90;92.60;;;;;;5041085;28;20195;-47
2022/09/05 09:22:57;;;;;;;3.03;2.73;;;22.00;92.30;;;;;;5024035;28;20215;-44
2022/09/05 09:25:29;;;;;;;4.40;3.10;;;22.10;92.20;;;;;;5040588;28;20201;-45
2022/09/05 09:28:18;;;;;;;8.50;2.83;;;22.30;92.00;;;;;;5034711;28;20718;-43
2022/09/05 09:30:55;;;;;;;6.27;2.57;;;22.40;91.40;;;;;;5045114;28;20586;-43
2022/09/05 09:33:35;;;;;;;2.80;2.60;;;22.40;91.60;;;;;;5040011;28;20254;-46
2022/09/05 09:36:09;;;;;;;3.10;2.57;;;22.30;91.50;;;;;;5040167;28;20915;-45
2022/09/05 09:38:47;;;;;;;2.63;2.43;;;22.40;91.50;;;;;;5027405;28;20211;-45
2022/09/05 09:41:31;;;;;;;3.17;2.40;;;22.60;91.30;;;;;;5040368;28;20183;-42
2022/09/05 09:44:45;;;;;;;2.57;2.37;;;22.60;91.10;;;;;;5036891;28;20225;-45
2022/09/05 09:47:14;;;;;;;3.00;2.67;;;22.60;91.20;;;;;;5033688;28;20202;-43
2022/09/05 09:50:14;;;;;;;4.13;2.70;;;22.80;90.90;;;;;;5044545;28;20256;-43
2022/09/05 09:53:02;;;;;;;3.60;2.57;;;23.00;90.70;;;;;;5049256;28;20219;-43
2022/09/05 09:56:11;;;;;;;8.50;2.83;;;23.10;90.30;;;;;;5028230;28;20203;-43
2022/09/05 09:59:10;;;;;;;5.37;2.90;;;23.20;90.10;;;;;;5044475;28;20199;-44
2022/09/05 10:01:52;;;;;;;5.47;3.47;;;23.20;89.70;;;;;;5038699;28;20214;-44
2022/09/05 10:04:42;;;;;;;3.80;3.07;;;23.00;90.10;;;;;;5036410;28;20227;-43
2022/09/05 10:07:57;;;;;;;3.33;3.00;;;23.00;90.00;;;;;;5034111;28;20203;-47
2022/09/05 10:11:05;;;;;;;4.83;2.50;;;23.00;89.60;;;;;;5014212;28;20309;-45
2022/09/05 10:13:58;;;;;;;3.20;2.90;;;23.10;89.40;;;;;;5039943;28;20231;-44
2022/09/05 10:16:52;;;;;;;3.43;3.23;;;23.10;89.30;;;;;;5047583;28;20203;-47
2022/09/05 10:19:50;;;;;;;3.50;3.20;;;23.00;89.30;;;;;;5037873;28;20226;-45
2022/09/05 10:22:42;;;;;;;3.90;3.00;;;23.10;89.60;;;;;;5055279;28;20927;-45
2022/09/05 10:25:27;;;;;;;3.43;3.13;;;23.20;89.60;;;;;;5036537;28;20211;-46
2022/09/05 10:28:04;;;;;;;3.10;2.73;;;23.30;89.40;;;;;;5036788;28;20207;-45
2022/09/05 10:30:51;;;;;;;4.23;2.93;;;23.20;89.60;;;;;;5041978;28;20228;-43
2022/09/05 10:33:38;;;;;;;4.40;2.83;;;23.30;89.40;;;;;;5040791;28;20229;-46
2022/09/05 10:36:23;;;;;;;6.23;2.67;;;23.50;87.50;;;;;;5038321;28;20200;-44
2022/09/05 10:38:59;;;;;;;4.07;2.70;;;23.60;87.20;;;;;;5042012;28;20203;-46
2022/09/05 10:41:39;;;;;;;3.05;2.75;;;23.60;86.80;;;;;;5043039;28;20656;-43
2022/09/05 10:44:09;;;;;;;10.93;3.33;;;23.70;86.20;;;;;;5025062;28;20218;-43
2022/09/05 10:46:47;;;;;;;3.10;2.78;;;23.70;86.20;;;;;;5040650;28;20294;-47
2022/09/05 10:49:16;;;;;;;4.57;2.55;;;23.70;85.70;;;;;;5038966;28;20199;-46
2022/09/05 10:51:48;;;;;;;5.32;2.30;;;23.70;85.40;;;;;;5041423;28;20715;-43
2022/09/05 10:54:38;;;;;;;3.15;2.53;;;23.80;85.00;;;;;;5040566;28;20303;-44
2022/09/05 10:57:16;;;;;;;2.58;2.33;;;24.00;84.40;;;;;;5038300;28;20188;-46
2022/09/05 11:00:04;;;;;;;4.50;3.40;;;24.20;83.60;;;;;;5026960;28;20214;-45
2022/09/05 11:02:32;;;;;;;5.32;2.80;;;24.30;82.20;;;;;;5032644;28;20273;-43
2022/09/05 11:05:08;;;;;;;2.80;2.60;;;24.20;82.70;;;;;;5034357;28;20199;-46
2022/09/05 11:07:40;;;;;;;2.90;2.70;;;24.20;82.10;;;;;;5043366;28;20588;-43
2022/09/05 11:10:13;;;;;;;2.60;2.40;;;24.20;81.80;;;;;;5035941;28;20536;-44
2022/09/05 11:13:00;;;;;;;2.58;2.38;;;24.30;81.10;;;;;;5047876;28;20238;-48
2022/09/05 11:15:33;;;;;;;2.60;2.22;;;24.40;80.60;;;;;;5030920;28;20222;-45
2022/09/05 11:18:03;;;;;;;2.60;2.35;;;24.70;80.60;;;;;;5026747;28;20195;-44
2022/09/05 11:20:44;;;;;;;4.90;2.58;;;24.90;78.40;;;;;;5049288;28;20191;-46
2022/09/05 11:23:19;;;;;;;4.32;2.70;;;25.30;78.30;;;;;;5048901;28;20244;-44
2022/09/05 11:25:47;;;;;;;4.88;2.33;;;25.30;77.00;;;;;;5040097;28;20214;-46
2022/09/05 11:28:17;;;;;;;2.22;2.05;;;25.20;76.70;;;;;;5040894;28;20267;-44
2022/09/05 11:30:50;;;;;;;4.68;2.00;;;25.10;76.30;;;;;;5032456;28;20221;-45
2022/09/05 11:33:38;;;;;;;2.40;2.08;;;24.90;76.10;;;;;;5045331;28;20230;-43
2022/09/05 11:36:09;;;;;;;3.20;2.30;;;24.80;76.20;;;;;;5040119;28;20944;-45
2022/09/05 11:38:52;;;;;;;2.22;2.03;;;24.80;76.50;;;;;;5053243;28;20207;-45
2022/09/05 11:41:46;;;;;;;2.42;2.22;;;24.90;75.50;;;;;;5046170;28;20199;-47
2022/09/05 11:44:27;;;;;;;3.55;1.98;;;24.80;75.70;;;;;;5027691;28;22229;-43
2022/09/05 11:47:18;;;;;;;3.33;2.30;;;24.70;75.40;;;;;;5032140;28;20218;-48
2022/09/05 11:50:24;;;;;;;2.97;2.17;;;24.50;75.50;;;;;;5036234;28;20250;-47
2022/09/05 11:53:31;;;;;;;3.03;2.10;;;24.50;75.30;;;;;;4977563;28;20228;-44
2022/09/05 11:56:39;;;;;;;3.40;2.20;;;24.40;75.70;;;;;;5043681;28;20195;-45
2022/09/05 11:59:34;;;;;;;2.67;2.28;;;24.30;75.80;;;;;;5020134;28;21202;-45
2022/09/05 12:02:25;;;;;;;3.13;2.35;;;24.30;75.90;;;;;;5044618;28;20198;-46
2022/09/05 12:05:03;;;;;;;5.68;2.35;;;24.20;76.20;;;;;;5039459;28;20896;-46
2022/09/05 12:07:56;;;;;;;4.10;2.40;;;24.10;76.70;;;;;;5049193;28;20259;-45
2022/09/05 12:10:34;;;;;;;2.83;2.10;;;24.10;76.80;;;;;;5041716;28;20307;-42
2022/09/05 12:13:25;;;;;;;2.72;2.00;;;24.00;77.40;;;;;;5038382;28;20211;-43
2022/09/05 12:15:52;;;;;;;2.88;2.20;;;24.10;77.60;;;;;;5025690;28;20237;-46
2022/09/05 12:18:27;;;;;;;3.58;2.30;;;24.10;77.40;;;;;;5040821;28;20195;-45
2022/09/05 12:21:07;;;;;;;2.50;2.30;;;24.10;77.30;;;;;;5040720;28;20195;-44
2022/09/05 12:23:49;;;;;;;4.32;2.10;;;24.00;77.20;;;;;;5040148;28;20226;-44
2022/09/05 12:26:23;;;;;;;4.50;2.97;;;24.00;77.00;;;;;;5040085;28;20188;-47
2022/09/05 12:28:56;;;;;;;2.08;1.88;;;23.90;77.30;;;;;;5040979;28;20187;-47
2022/09/05 12:31:29;;;;;;;2.50;2.30;;;23.90;77.40;;;;;;5026242;28;20329;-47
2022/09/05 12:33:59;;;;;;;4.15;2.55;;;23.90;77.20;;;;;;5038721;28;20219;-43
2022/09/05 12:36:34;;;;;;;3.20;2.30;;;23.90;77.20;;;;;;5042559;28;20230;-47
2022/09/05 12:39:07;;;;;;;4.15;2.40;;;24.00;77.40;;;;;;5037104;28;20249;-43
2022/09/05 12:41:47;;;;;;;3.78;2.67;;;24.00;76.80;;;;;;5050388;28;20203;-45
2022/09/05 12:44:27;;;;;;;3.25;2.22;;;23.80;76.40;;;;;;5039299;28;20222;-42
2022/09/05 12:46:57;;;;;;;3.03;2.50;;;23.80;76.40;;;;;;5027930;28;20195;-45
2022/09/05 12:49:32;;;;;;;5.82;2.40;;;23.80;76.20;;;;;;5040078;28;20206;-42
2022/09/05 12:52:03;;;;;;;2.20;1.77;;;23.80;75.90;;;;;;5047739;28;20752;-43
2022/09/05 12:54:40;;;;;;;3.67;2.10;;;23.80;75.60;;;;;;5055806;28;20224;-43
2022/09/05 12:57:16;;;;;;;3.75;2.35;;;23.80;75.70;;;;;;5034663;28;20213;-47
2022/09/05 12:59:47;;;;;;;2.55;2.28;;;23.90;75.80;;;;;;5049259;28;21045;-48
2022/09/05 13:02:22;;;;;;;2.83;2.22;;;23.80;76.00;;;;;;5035323;28;20203;-45
2022/09/05 13:04:56;;;;;;;2.25;2.15;;;23.80;75.90;;;;;;5034746;28;20209;-46
2022/09/05 13:07:31;;;;;;;2.25;2.15;;;23.80;76.00;;;;;;5044363;28;20660;-49
2022/09/05 13:10:02;;;;;;;2.95;2.10;;;23.80;75.90;;;;;;5055710;28;20232;-43
2022/09/05 13:12:35;;;;;;;3.80;2.70;;;23.70;76.00;;;;;;5036245;28;20215;-44
2022/09/05 13:15:07;;;;;;;2.08;1.98;;;23.80;76.00;;;;;;5048188;28;20206;-44
2022/09/05 13:17:38;;;;;;;2.20;2.00;;;23.80;75.60;;;;;;5026890;28;20215;-47
2022/09/05 13:20:15;;;;;;;3.97;2.38;;;23.80;75.70;;;;;;5037213;28;21733;-45
2022/09/05 13:22:45;;;;;;;3.13;2.17;;;23.90;75.70;;;;;;5039186;28;20215;-43
2022/09/05 13:25:17;;;;;;;2.17;2.00;;;23.80;75.60;;;;;;5039991;28;20242;-49
2022/09/05 13:27:55;;;;;;;2.78;2.20;;;23.80;75.80;;;;;;5042486;28;20258;-45
2022/09/05 13:30:25;;;;;;;4.60;2.33;;;23.80;75.90;;;;;;5044722;28;20191;-45
2022/09/05 13:32:55;;;;;;;7.60;2.28;;;23.80;76.10;;;;;;5032694;28;20223;-48
2022/09/05 13:35:25;;;;;;;3.97;2.33;;;23.80;76.20;;;;;;5038154;28;20215;-45
2022/09/05 13:38:00;;;;;;;3.70;2.00;;;23.90;76.10;;;;;;5035211;28;20204;-44
2022/09/05 13:40:32;;;;;;;2.13;1.98;;;23.80;76.00;;;;;;5042162;28;20283;-45
2022/09/05 13:43:08;;;;;;;2.25;2.15;;;23.80;76.30;;;;;;5039726;28;20277;-43
2022/09/05 13:45:47;;;;;;;4.93;2.45;;;23.80;76.10;;;;;;5047097;28;20191;-44
2022/09/05 13:48:36;;;;;;;2.78;2.58;;;23.80;76.10;;;;;;5027526;28;20287;-43
2022/09/05 13:51:16;;;;;;;2.17;1.98;;;23.70;76.10;;;;;;5044919;28;20927;-44
2022/09/05 13:53:51;;;;;;;2.35;2.15;;;23.80;76.10;;;;;;5042404;28;20211;-43
2022/09/05 13:56:24;;;;;;;3.45;2.28;;;23.70;76.00;;;;;;5040412;28;20202;-46